sensor_id;sensor_type;location;lat;lon;timestamp;P1;durP1;ratioP1;P2;durP2;ratioP2
7247;SDS011;3665;51.034;13.642;2024-01-30T02:44:52;21.57;;;12.57;;
7247;SDS011;3665;51.034;13.642;2024-01-30T03:18:18;19.60;;;12.57;;
7247;SDS011;3665;51.034;13.642;2024-01-30T03:25:08;18.10;;;12.10;;
7247;SDS011;3665;51.034;13.642;2024-01-30T03:31:39;19.10;;;12.23;;
7247;SDS011;3665;51.034;13.642;2024-01-30T03:44:12;20.87;;;13.17;;
7247;SDS011;3665;51.034;13.642;2024-01-30T04:01:45;15.87;;;12.07;;
7247;SDS011;3665;51.034;13.642;2024-01-30T04:09:33;18.50;;;12.90;;
7247;SDS011;3665;51.034;13.642;2024-01-30T04:13:59;20.37;;;12.37;;
7247;SDS011;3665;51.034;13.642;2024-01-30T04:32:48;14.30;;;11.63;;
7247;SDS011;3665;51.034;13.642;2024-01-30T04:38:17;16.57;;;12.13;;
7247;SDS011;3665;51.034;13.642;2024-01-30T04:43:05;20.20;;;11.93;;
7247;SDS011;3665;51.034;13.642;2024-01-30T04:47:52;20.47;;;12.23;;
7247;SDS011;3665;51.034;13.642;2024-01-30T04:52:38;19.80;;;12.97;;
7247;SDS011;3665;51.034;13.642;2024-01-30T04:57:22;15.87;;;11.80;;
7247;SDS011;3665;51.034;13.642;2024-01-30T05:02:16;19.40;;;11.80;;
7247;SDS011;3665;51.034;13.642;2024-01-30T05:07:06;19.90;;;11.90;;
7247;SDS011;3665;51.034;13.642;2024-01-30T05:11:55;18.47;;;13.30;;
7247;SDS011;3665;51.034;13.642;2024-01-30T05:16:39;17.40;;;13.23;;
7247;SDS011;3665;51.034;13.642;2024-01-30T05:21:28;18.10;;;13.10;;
7247;SDS011;3665;51.034;13.642;2024-01-30T05:26:14;17.97;;;11.77;;
7247;SDS011;3665;51.034;13.642;2024-01-30T05:31:03;15.87;;;11.77;;
7247;SDS011;3665;51.034;13.642;2024-01-30T05:35:52;20.80;;;12.63;;
7247;SDS011;3665;51.034;13.642;2024-01-30T05:40:41;18.77;;;12.20;;
7247;SDS011;3665;51.034;13.642;2024-01-30T05:45:28;18.53;;;12.43;;
7247;SDS011;3665;51.034;13.642;2024-01-30T05:50:13;17.80;;;11.53;;
7247;SDS011;3665;51.034;13.642;2024-01-30T05:54:57;16.87;;;11.87;;
7247;SDS011;3665;51.034;13.642;2024-01-30T05:59:54;17.77;;;12.77;;
7247;SDS011;3665;51.034;13.642;2024-01-30T06:04:37;15.73;;;12.00;;
7247;SDS011;3665;51.034;13.642;2024-01-30T06:09:28;19.30;;;11.83;;
7247;SDS011;3665;51.034;13.642;2024-01-30T06:14:12;16.20;;;11.20;;
7247;SDS011;3665;51.034;13.642;2024-01-30T06:19:07;16.40;;;11.63;;
7247;SDS011;3665;51.034;13.642;2024-01-30T06:23:51;15.13;;;11.37;;
7247;SDS011;3665;51.034;13.642;2024-01-30T06:28:34;16.70;;;11.57;;
7247;SDS011;3665;51.034;13.642;2024-01-30T06:33:20;19.77;;;11.87;;
7247;SDS011;3665;51.034;13.642;2024-01-30T06:38:08;15.47;;;11.50;;
7247;SDS011;3665;51.034;13.642;2024-01-30T06:42:52;21.30;;;12.57;;
7247;SDS011;3665;51.034;13.642;2024-01-30T06:47:35;20.03;;;11.83;;
7247;SDS011;3665;51.034;13.642;2024-01-30T06:52:21;15.67;;;11.57;;
7247;SDS011;3665;51.034;13.642;2024-01-30T06:57:15;17.90;;;12.20;;
7247;SDS011;3665;51.034;13.642;2024-01-30T07:02:00;19.57;;;12.70;;
7247;SDS011;3665;51.034;13.642;2024-01-30T07:06:47;15.87;;;11.00;;
7247;SDS011;3665;51.034;13.642;2024-01-30T07:11:36;19.67;;;12.67;;
7247;SDS011;3665;51.034;13.642;2024-01-30T07:16:23;37.20;;;23.80;;
7247;SDS011;3665;51.034;13.642;2024-01-30T07:21:13;20.63;;;12.20;;
7247;SDS011;3665;51.034;13.642;2024-01-30T07:25:57;14.93;;;11.27;;
7247;SDS011;3665;51.034;13.642;2024-01-30T07:30:40;15.93;;;11.67;;
7247;SDS011;3665;51.034;13.642;2024-01-30T07:35:36;16.83;;;11.50;;
7247;SDS011;3665;51.034;13.642;2024-01-30T07:40:20;15.03;;;11.20;;
7247;SDS011;3665;51.034;13.642;2024-01-30T07:45:07;15.43;;;12.27;;
7247;SDS011;3665;51.034;13.642;2024-01-30T07:49:58;17.47;;;11.17;;
7247;SDS011;3665;51.034;13.642;2024-01-30T07:59:51;17.20;;;11.77;;
7247;SDS011;3665;51.034;13.642;2024-01-30T08:04:41;17.50;;;12.43;;
7247;SDS011;3665;51.034;13.642;2024-01-30T08:09:25;18.70;;;13.07;;
7247;SDS011;3665;51.034;13.642;2024-01-30T08:14:15;18.30;;;13.63;;
7247;SDS011;3665;51.034;13.642;2024-01-30T08:19:05;14.93;;;10.70;;
7247;SDS011;3665;51.034;13.642;2024-01-30T08:23:51;14.33;;;11.27;;
7247;SDS011;3665;51.034;13.642;2024-01-30T08:28:39;15.47;;;11.83;;
7247;SDS011;3665;51.034;13.642;2024-01-30T08:38:31;15.13;;;10.37;;
7247;SDS011;3665;51.034;13.642;2024-01-30T09:43:55;10.17;;;8.30;;
7247;SDS011;3665;51.034;13.642;2024-01-30T09:48:40;11.83;;;8.97;;
7247;SDS011;3665;51.034;13.642;2024-01-30T09:53:30;10.93;;;8.90;;
7247;SDS011;3665;51.034;13.642;2024-01-30T09:58:15;9.17;;;8.17;;
7247;SDS011;3665;51.034;13.642;2024-01-30T10:03:05;11.87;;;8.20;;
7247;SDS011;3665;51.034;13.642;2024-01-30T10:07:53;11.47;;;8.17;;
7247;SDS011;3665;51.034;13.642;2024-01-30T10:12:40;9.83;;;7.60;;
7247;SDS011;3665;51.034;13.642;2024-01-30T10:17:28;12.23;;;8.73;;
7247;SDS011;3665;51.034;13.642;2024-01-30T10:22:15;12.33;;;8.80;;
7247;SDS011;3665;51.034;13.642;2024-01-30T10:27:05;13.13;;;8.10;;
7247;SDS011;3665;51.034;13.642;2024-01-30T10:31:57;12.10;;;8.00;;
7247;SDS011;3665;51.034;13.642;2024-01-30T10:36:43;10.70;;;8.27;;
7247;SDS011;3665;51.034;13.642;2024-01-30T10:41:44;9.23;;;7.67;;
7247;SDS011;3665;51.034;13.642;2024-01-30T10:46:31;11.37;;;8.60;;
7247;SDS011;3665;51.034;13.642;2024-01-30T10:51:22;14.20;;;9.13;;
7247;SDS011;3665;51.034;13.642;2024-01-30T10:56:09;12.27;;;9.00;;
7247;SDS011;3665;51.034;13.642;2024-01-30T11:00:54;10.10;;;8.00;;
7247;SDS011;3665;51.034;13.642;2024-01-30T11:05:43;14.27;;;9.60;;
7247;SDS011;3665;51.034;13.642;2024-01-30T11:10:32;13.27;;;8.87;;
7247;SDS011;3665;51.034;13.642;2024-01-30T11:15:37;10.60;;;8.30;;
7247;SDS011;3665;51.034;13.642;2024-01-30T11:20:25;12.53;;;8.63;;
7247;SDS011;3665;51.034;13.642;2024-01-30T11:25:13;10.97;;;8.47;;
7247;SDS011;3665;51.034;13.642;2024-01-30T11:30:00;10.90;;;8.83;;
7247;SDS011;3665;51.034;13.642;2024-01-30T11:39:54;13.87;;;9.13;;
7247;SDS011;3665;51.034;13.642;2024-01-30T11:44:39;14.27;;;8.70;;
7247;SDS011;3665;51.034;13.642;2024-01-30T11:49:29;11.77;;;9.57;;
7247;SDS011;3665;51.034;13.642;2024-01-30T11:54:16;14.27;;;9.67;;
7247;SDS011;3665;51.034;13.642;2024-01-30T11:59:10;11.60;;;9.60;;
7247;SDS011;3665;51.034;13.642;2024-01-30T12:04:12;14.40;;;9.60;;
7247;SDS011;3665;51.034;13.642;2024-01-30T12:09:29;13.00;;;9.73;;
7247;SDS011;3665;51.034;13.642;2024-01-30T12:14:16;11.57;;;9.23;;
7247;SDS011;3665;51.034;13.642;2024-01-30T12:19:04;13.47;;;9.50;;
7247;SDS011;3665;51.034;13.642;2024-01-30T12:23:51;12.90;;;9.37;;
7247;SDS011;3665;51.034;13.642;2024-01-30T12:33:40;15.40;;;9.97;;
7247;SDS011;3665;51.034;13.642;2024-01-30T12:38:32;15.97;;;9.67;;
7247;SDS011;3665;51.034;13.642;2024-01-30T12:43:19;14.80;;;10.37;;
7247;SDS011;3665;51.034;13.642;2024-01-30T12:48:25;14.60;;;9.37;;
7247;SDS011;3665;51.034;13.642;2024-01-30T12:53:11;15.90;;;10.33;;
7247;SDS011;3665;51.034;13.642;2024-01-30T12:58:00;11.83;;;9.90;;
7247;SDS011;3665;51.034;13.642;2024-01-30T13:02:49;15.37;;;10.50;;
7247;SDS011;3665;51.034;13.642;2024-01-30T13:07:37;15.10;;;9.87;;
7247;SDS011;3665;51.034;13.642;2024-01-30T13:12:23;14.10;;;10.17;;
7247;SDS011;3665;51.034;13.642;2024-01-30T13:17:14;14.37;;;10.17;;
7247;SDS011;3665;51.034;13.642;2024-01-30T13:22:00;13.97;;;9.97;;
7247;SDS011;3665;51.034;13.642;2024-01-30T13:26:48;15.53;;;10.30;;
7247;SDS011;3665;51.034;13.642;2024-01-30T13:31:34;13.30;;;9.10;;
7247;SDS011;3665;51.034;13.642;2024-01-30T13:36:27;13.57;;;10.30;;
7247;SDS011;3665;51.034;13.642;2024-01-30T13:41:11;15.47;;;11.33;;
7247;SDS011;3665;51.034;13.642;2024-01-30T13:45:56;15.20;;;10.13;;
7247;SDS011;3665;51.034;13.642;2024-01-30T13:50:47;17.60;;;12.17;;
7247;SDS011;3665;51.034;13.642;2024-01-30T13:55:31;15.33;;;11.13;;
7247;SDS011;3665;51.034;13.642;2024-01-30T14:00:23;14.27;;;11.07;;
7247;SDS011;3665;51.034;13.642;2024-01-30T14:05:11;15.40;;;11.53;;
7247;SDS011;3665;51.034;13.642;2024-01-30T14:09:59;14.73;;;11.60;;
7247;SDS011;3665;51.034;13.642;2024-01-30T14:14:49;16.50;;;11.80;;
7247;SDS011;3665;51.034;13.642;2024-01-30T14:19:35;14.33;;;11.00;;
7247;SDS011;3665;51.034;13.642;2024-01-30T14:24:24;16.87;;;11.27;;
7247;SDS011;3665;51.034;13.642;2024-01-30T14:29:11;17.07;;;10.80;;
7247;SDS011;3665;51.034;13.642;2024-01-30T14:34:00;14.17;;;10.93;;
7247;SDS011;3665;51.034;13.642;2024-01-30T14:38:53;16.97;;;11.90;;
7247;SDS011;3665;51.034;13.642;2024-01-30T14:43:52;16.73;;;11.27;;
7247;SDS011;3665;51.034;13.642;2024-01-30T14:48:39;16.00;;;10.80;;
7247;SDS011;3665;51.034;13.642;2024-01-30T14:53:29;16.37;;;11.50;;
7247;SDS011;3665;51.034;13.642;2024-01-30T14:58:16;16.60;;;10.47;;
7247;SDS011;3665;51.034;13.642;2024-01-30T15:03:04;14.70;;;10.80;;
7247;SDS011;3665;51.034;13.642;2024-01-30T15:07:51;13.43;;;10.50;;
7247;SDS011;3665;51.034;13.642;2024-01-30T15:41:14;16.27;;;11.67;;
7247;SDS011;3665;51.034;13.642;2024-01-30T15:51:19;17.43;;;12.73;;
7247;SDS011;3665;51.034;13.642;2024-01-30T15:56:09;18.73;;;12.63;;
7247;SDS011;3665;51.034;13.642;2024-01-30T16:00:57;18.90;;;12.70;;
7247;SDS011;3665;51.034;13.642;2024-01-30T16:05:44;19.63;;;13.23;;
7247;SDS011;3665;51.034;13.642;2024-01-30T16:10:30;18.33;;;11.93;;
7247;SDS011;3665;51.034;13.642;2024-01-30T16:15:25;18.27;;;13.23;;
7247;SDS011;3665;51.034;13.642;2024-01-30T16:25:27;20.40;;;13.33;;
7247;SDS011;3665;51.034;13.642;2024-01-30T16:30:17;20.13;;;14.07;;
7247;SDS011;3665;51.034;13.642;2024-01-30T16:35:03;19.83;;;13.23;;
7247;SDS011;3665;51.034;13.642;2024-01-30T16:45:14;19.63;;;13.20;;
7247;SDS011;3665;51.034;13.642;2024-01-30T16:55:33;19.27;;;13.93;;
7247;SDS011;3665;51.034;13.642;2024-01-30T17:11:26;20.90;;;13.93;;
7247;SDS011;3665;51.034;13.642;2024-01-30T17:16:29;20.13;;;13.70;;
7247;SDS011;3665;51.034;13.642;2024-01-30T17:21:15;21.27;;;14.20;;
7247;SDS011;3665;51.034;13.642;2024-01-30T17:26:15;21.50;;;14.47;;
7247;SDS011;3665;51.034;13.642;2024-01-30T17:32:03;22.03;;;16.03;;
7247;SDS011;3665;51.034;13.642;2024-01-30T17:41:20;22.50;;;14.97;;
7247;SDS011;3665;51.034;13.642;2024-01-30T17:46:17;25.03;;;14.57;;
7247;SDS011;3665;51.034;13.642;2024-01-30T17:56:22;28.93;;;17.17;;
7247;SDS011;3665;51.034;13.642;2024-01-30T18:01:12;29.50;;;16.17;;
